sensor_id;sensor_type;location;lat;lon;timestamp;P1;durP1;ratioP1;P2;durP2;ratioP2
8411;SDS011;4243;49.296;11.348;2023-02-11T00:01:21;109.22;;;3.40;;
8411;SDS011;4243;49.296;11.348;2023-02-11T00:03:57;110.18;;;3.47;;
8411;SDS011;4243;49.296;11.348;2023-02-11T00:06:25;109.88;;;3.38;;
8411;SDS011;4243;49.296;11.348;2023-02-11T00:08:55;109.72;;;3.40;;
8411;SDS011;4243;49.296;11.348;2023-02-11T00:11:23;110.07;;;3.45;;
8411;SDS011;4243;49.296;11.348;2023-02-11T00:13:57;109.53;;;3.47;;
8411;SDS011;4243;49.296;11.348;2023-02-11T00:16:29;110.50;;;3.40;;
8411;SDS011;4243;49.296;11.348;2023-02-11T00:18:57;110.35;;;3.45;;
8411;SDS011;4243;49.296;11.348;2023-02-11T00:21:26;109.82;;;3.42;;
8411;SDS011;4243;49.296;11.348;2023-02-11T00:23:55;110.07;;;3.47;;
8411;SDS011;4243;49.296;11.348;2023-02-11T00:26:25;109.28;;;3.45;;
8411;SDS011;4243;49.296;11.348;2023-02-11T00:28:57;109.78;;;3.40;;
8411;SDS011;4243;49.296;11.348;2023-02-11T00:31:26;109.78;;;3.45;;
8411;SDS011;4243;49.296;11.348;2023-02-11T00:33:54;109.18;;;3.47;;
8411;SDS011;4243;49.296;11.348;2023-02-11T00:36:22;110.30;;;3.45;;
8411;SDS011;4243;49.296;11.348;2023-02-11T00:38:52;110.07;;;3.40;;
8411;SDS011;4243;49.296;11.348;2023-02-11T00:41:22;109.88;;;3.40;;
8411;SDS011;4243;49.296;11.348;2023-02-11T00:43:50;110.25;;;3.38;;
8411;SDS011;4243;49.296;11.348;2023-02-11T00:46:18;110.28;;;3.40;;
8411;SDS011;4243;49.296;11.348;2023-02-11T00:48:46;110.68;;;3.40;;
8411;SDS011;4243;49.296;11.348;2023-02-11T00:51:14;109.88;;;3.38;;
8411;SDS011;4243;49.296;11.348;2023-02-11T00:53:41;110.07;;;3.40;;
8411;SDS011;4243;49.296;11.348;2023-02-11T00:56:09;109.97;;;3.40;;
8411;SDS011;4243;49.296;11.348;2023-02-11T00:58:36;109.35;;;3.40;;
8411;SDS011;4243;49.296;11.348;2023-02-11T01:01:03;109.43;;;3.40;;
8411;SDS011;4243;49.296;11.348;2023-02-11T01:03:31;109.00;;;3.40;;
8411;SDS011;4243;49.296;11.348;2023-02-11T01:05:59;110.38;;;3.38;;
8411;SDS011;4243;49.296;11.348;2023-02-11T01:08:26;110.10;;;3.40;;
8411;SDS011;4243;49.296;11.348;2023-02-11T01:10:57;108.93;;;3.40;;
8411;SDS011;4243;49.296;11.348;2023-02-11T01:13:33;110.30;;;3.38;;
8411;SDS011;4243;49.296;11.348;2023-02-11T01:16:02;108.80;;;3.38;;
8411;SDS011;4243;49.296;11.348;2023-02-11T01:18:34;110.22;;;3.40;;
8411;SDS011;4243;49.296;11.348;2023-02-11T01:21:02;109.68;;;3.40;;
8411;SDS011;4243;49.296;11.348;2023-02-11T01:23:30;110.30;;;3.47;;
8411;SDS011;4243;49.296;11.348;2023-02-11T01:25:58;109.88;;;3.38;;
8411;SDS011;4243;49.296;11.348;2023-02-11T01:28:27;110.40;;;3.40;;
8411;SDS011;4243;49.296;11.348;2023-02-11T01:30:59;109.32;;;3.40;;
8411;SDS011;4243;49.296;11.348;2023-02-11T01:33:28;108.55;;;3.35;;
8411;SDS011;4243;49.296;11.348;2023-02-11T01:36:01;109.85;;;3.33;;
8411;SDS011;4243;49.296;11.348;2023-02-11T01:38:30;109.53;;;3.40;;
8411;SDS011;4243;49.296;11.348;2023-02-11T01:40:59;109.82;;;3.38;;
8411;SDS011;4243;49.296;11.348;2023-02-11T01:43:39;109.78;;;3.40;;
8411;SDS011;4243;49.296;11.348;2023-02-11T01:48:57;110.38;;;3.40;;
8411;SDS011;4243;49.296;11.348;2023-02-11T01:54:58;109.68;;;3.35;;
8411;SDS011;4243;49.296;11.348;2023-02-11T01:57:51;110.38;;;3.40;;
8411;SDS011;4243;49.296;11.348;2023-02-11T02:00:34;109.82;;;3.40;;
8411;SDS011;4243;49.296;11.348;2023-02-11T02:03:05;108.82;;;3.38;;
8411;SDS011;4243;49.296;11.348;2023-02-11T02:05:48;110.38;;;3.38;;
8411;SDS011;4243;49.296;11.348;2023-02-11T02:08:43;109.88;;;3.30;;
8411;SDS011;4243;49.296;11.348;2023-02-11T02:11:21;109.28;;;3.33;;
8411;SDS011;4243;49.296;11.348;2023-02-11T02:13:49;109.57;;;3.38;;
8411;SDS011;4243;49.296;11.348;2023-02-11T02:16:20;109.88;;;3.38;;
8411;SDS011;4243;49.296;11.348;2023-02-11T02:19:07;109.47;;;3.38;;
8411;SDS011;4243;49.296;11.348;2023-02-11T02:29:21;109.78;;;3.30;;
8411;SDS011;4243;49.296;11.348;2023-02-11T02:38:59;109.82;;;3.33;;
8411;SDS011;4243;49.296;11.348;2023-02-11T02:41:38;110.28;;;3.35;;
8411;SDS011;4243;49.296;11.348;2023-02-11T02:44:07;109.70;;;3.33;;
8411;SDS011;4243;49.296;11.348;2023-02-11T02:46:34;109.00;;;3.33;;
8411;SDS011;4243;49.296;11.348;2023-02-11T02:49:02;109.57;;;3.30;;
8411;SDS011;4243;49.296;11.348;2023-02-11T02:55:02;109.22;;;3.30;;
8411;SDS011;4243;49.296;11.348;2023-02-11T02:57:44;108.70;;;3.33;;
8411;SDS011;4243;49.296;11.348;2023-02-11T03:01:02;109.88;;;3.20;;
8411;SDS011;4243;49.296;11.348;2023-02-11T03:09:34;108.73;;;3.30;;
8411;SDS011;4243;49.296;11.348;2023-02-11T03:12:17;109.27;;;3.20;;
8411;SDS011;4243;49.296;11.348;2023-02-11T03:14:48;108.60;;;3.20;;
8411;SDS011;4243;49.296;11.348;2023-02-11T03:17:18;107.67;;;3.20;;
8411;SDS011;4243;49.296;11.348;2023-02-11T03:19:47;108.13;;;3.10;;
8411;SDS011;4243;49.296;11.348;2023-02-11T03:22:18;107.10;;;3.10;;
8411;SDS011;4243;49.296;11.348;2023-02-11T03:24:53;108.80;;;3.17;;
8411;SDS011;4243;49.296;11.348;2023-02-11T03:27:37;109.00;;;3.17;;
8411;SDS011;4243;49.296;11.348;2023-02-11T03:30:33;109.13;;;3.17;;
8411;SDS011;4243;49.296;11.348;2023-02-11T03:33:19;110.60;;;3.20;;
8411;SDS011;4243;49.296;11.348;2023-02-11T03:36:20;110.07;;;3.17;;
8411;SDS011;4243;49.296;11.348;2023-02-11T03:39:01;110.37;;;3.20;;
8411;SDS011;4243;49.296;11.348;2023-02-11T03:41:32;109.50;;;3.10;;
8411;SDS011;4243;49.296;11.348;2023-02-11T03:44:01;110.87;;;3.13;;
8411;SDS011;4243;49.296;11.348;2023-02-11T03:46:30;110.43;;;3.10;;
8411;SDS011;4243;49.296;11.348;2023-02-11T03:49:08;108.67;;;3.10;;
8411;SDS011;4243;49.296;11.348;2023-02-11T03:51:40;109.60;;;3.13;;
8411;SDS011;4243;49.296;11.348;2023-02-11T03:54:09;109.10;;;3.10;;
8411;SDS011;4243;49.296;11.348;2023-02-11T03:56:50;108.67;;;3.10;;
8411;SDS011;4243;49.296;11.348;2023-02-11T03:59:22;109.80;;;3.10;;
8411;SDS011;4243;49.296;11.348;2023-02-11T04:01:49;109.70;;;3.10;;
8411;SDS011;4243;49.296;11.348;2023-02-11T04:04:17;109.67;;;3.17;;
8411;SDS011;4243;49.296;11.348;2023-02-11T04:06:44;109.90;;;3.13;;
8411;SDS011;4243;49.296;11.348;2023-02-11T04:09:12;110.77;;;3.17;;
8411;SDS011;4243;49.296;11.348;2023-02-11T04:11:40;109.93;;;3.13;;
8411;SDS011;4243;49.296;11.348;2023-02-11T04:14:07;108.03;;;3.10;;
8411;SDS011;4243;49.296;11.348;2023-02-11T04:16:34;110.13;;;3.10;;
8411;SDS011;4243;49.296;11.348;2023-02-11T04:19:02;110.23;;;3.10;;
8411;SDS011;4243;49.296;11.348;2023-02-11T04:21:30;110.10;;;3.03;;
8411;SDS011;4243;49.296;11.348;2023-02-11T04:23:57;108.57;;;3.10;;
8411;SDS011;4243;49.296;11.348;2023-02-11T04:26:24;109.80;;;3.13;;
8411;SDS011;4243;49.296;11.348;2023-02-11T04:28:51;110.37;;;3.07;;
8411;SDS011;4243;49.296;11.348;2023-02-11T04:31:19;109.27;;;3.03;;
8411;SDS011;4243;49.296;11.348;2023-02-11T04:33:46;109.70;;;3.10;;
8411;SDS011;4243;49.296;11.348;2023-02-11T04:36:13;110.40;;;3.10;;
8411;SDS011;4243;49.296;11.348;2023-02-11T04:38:40;110.30;;;3.10;;
8411;SDS011;4243;49.296;11.348;2023-02-11T04:41:07;109.47;;;3.10;;
8411;SDS011;4243;49.296;11.348;2023-02-11T04:43:34;110.10;;;3.13;;
8411;SDS011;4243;49.296;11.348;2023-02-11T04:46:01;110.23;;;3.07;;
8411;SDS011;4243;49.296;11.348;2023-02-11T04:48:28;110.97;;;3.10;;
8411;SDS011;4243;49.296;11.348;2023-02-11T04:50:55;110.90;;;3.13;;
8411;SDS011;4243;49.296;11.348;2023-02-11T04:53:23;110.97;;;3.13;;
8411;SDS011;4243;49.296;11.348;2023-02-11T04:55:50;107.90;;;3.10;;
8411;SDS011;4243;49.296;11.348;2023-02-11T04:58:18;110.47;;;3.20;;
8411;SDS011;4243;49.296;11.348;2023-02-11T05:00:46;110.10;;;3.10;;
8411;SDS011;4243;49.296;11.348;2023-02-11T05:03:13;111.23;;;3.10;;
8411;SDS011;4243;49.296;11.348;2023-02-11T05:05:41;109.30;;;3.17;;
8411;SDS011;4243;49.296;11.348;2023-02-11T05:08:09;109.80;;;3.17;;
8411;SDS011;4243;49.296;11.348;2023-02-11T05:10:37;110.10;;;3.13;;
8411;SDS011;4243;49.296;11.348;2023-02-11T05:13:04;110.27;;;3.17;;
8411;SDS011;4243;49.296;11.348;2023-02-11T05:15:32;110.67;;;3.20;;
8411;SDS011;4243;49.296;11.348;2023-02-11T05:17:59;109.50;;;3.13;;
8411;SDS011;4243;49.296;11.348;2023-02-11T05:20:26;107.50;;;3.17;;
8411;SDS011;4243;49.296;11.348;2023-02-11T05:22:53;110.97;;;3.20;;
8411;SDS011;4243;49.296;11.348;2023-02-11T05:25:20;109.07;;;3.13;;
8411;SDS011;4243;49.296;11.348;2023-02-11T05:27:48;110.73;;;3.17;;
8411;SDS011;4243;49.296;11.348;2023-02-11T05:30:15;110.50;;;3.13;;
8411;SDS011;4243;49.296;11.348;2023-02-11T05:32:42;110.13;;;3.17;;
8411;SDS011;4243;49.296;11.348;2023-02-11T05:35:09;110.77;;;3.13;;
8411;SDS011;4243;49.296;11.348;2023-02-11T05:37:36;110.13;;;3.03;;
8411;SDS011;4243;49.296;11.348;2023-02-11T05:40:05;109.43;;;3.10;;
8411;SDS011;4243;49.296;11.348;2023-02-11T05:42:33;108.17;;;3.03;;
8411;SDS011;4243;49.296;11.348;2023-02-11T05:45:00;110.13;;;3.07;;
8411;SDS011;4243;49.296;11.348;2023-02-11T05:47:28;108.23;;;3.07;;
8411;SDS011;4243;49.296;11.348;2023-02-11T05:49:55;108.37;;;3.07;;
8411;SDS011;4243;49.296;11.348;2023-02-11T05:52:23;110.40;;;3.10;;
8411;SDS011;4243;49.296;11.348;2023-02-11T05:54:50;108.80;;;3.10;;
8411;SDS011;4243;49.296;11.348;2023-02-11T05:57:17;109.50;;;3.10;;
8411;SDS011;4243;49.296;11.348;2023-02-11T05:59:44;111.10;;;3.10;;
8411;SDS011;4243;49.296;11.348;2023-02-11T06:02:11;111.10;;;3.10;;
8411;SDS011;4243;49.296;11.348;2023-02-11T06:04:39;108.80;;;3.07;;
8411;SDS011;4243;49.296;11.348;2023-02-11T06:07:06;108.03;;;3.00;;
8411;SDS011;4243;49.296;11.348;2023-02-11T06:09:33;110.03;;;3.10;;
8411;SDS011;4243;49.296;11.348;2023-02-11T06:12:01;108.97;;;3.07;;
8411;SDS011;4243;49.296;11.348;2023-02-11T06:14:31;110.20;;;3.07;;
8411;SDS011;4243;49.296;11.348;2023-02-11T06:17:00;108.47;;;3.10;;
8411;SDS011;4243;49.296;11.348;2023-02-11T06:19:27;110.60;;;3.07;;
8411;SDS011;4243;49.296;11.348;2023-02-11T06:21:54;110.20;;;3.10;;
8411;SDS011;4243;49.296;11.348;2023-02-11T06:24:22;109.57;;;3.07;;
8411;SDS011;4243;49.296;11.348;2023-02-11T06:27:09;109.67;;;3.07;;
8411;SDS011;4243;49.296;11.348;2023-02-11T06:29:37;110.77;;;3.10;;
8411;SDS011;4243;49.296;11.348;2023-02-11T06:32:04;110.97;;;3.10;;
8411;SDS011;4243;49.296;11.348;2023-02-11T06:34:41;110.03;;;3.03;;
8411;SDS011;4243;49.296;11.348;2023-02-11T06:37:08;110.57;;;3.00;;
8411;SDS011;4243;49.296;11.348;2023-02-11T06:39:36;109.80;;;3.10;;
8411;SDS011;4243;49.296;11.348;2023-02-11T06:42:03;111.03;;;3.07;;
8411;SDS011;4243;49.296;11.348;2023-02-11T06:44:33;110.67;;;3.07;;
8411;SDS011;4243;49.296;11.348;2023-02-11T06:47:00;109.70;;;3.00;;
8411;SDS011;4243;49.296;11.348;2023-02-11T06:49:27;110.67;;;3.00;;
8411;SDS011;4243;49.296;11.348;2023-02-11T06:51:54;110.27;;;3.00;;
8411;SDS011;4243;49.296;11.348;2023-02-11T06:54:21;110.97;;;3.00;;
8411;SDS011;4243;49.296;11.348;2023-02-11T06:56:48;110.90;;;3.00;;
8411;SDS011;4243;49.296;11.348;2023-02-11T06:59:16;110.30;;;3.00;;
8411;SDS011;4243;49.296;11.348;2023-02-11T07:01:46;109.17;;;2.93;;
8411;SDS011;4243;49.296;11.348;2023-02-11T07:04:13;110.87;;;3.00;;
8411;SDS011;4243;49.296;11.348;2023-02-11T07:06:41;110.30;;;3.00;;
8411;SDS011;4243;49.296;11.348;2023-02-11T07:09:08;111.67;;;3.00;;
8411;SDS011;4243;49.296;11.348;2023-02-11T07:11:35;110.57;;;2.97;;
8411;SDS011;4243;49.296;11.348;2023-02-11T07:14:03;111.40;;;3.00;;
8411;SDS011;4243;49.296;11.348;2023-02-11T07:16:33;108.90;;;2.93;;
8411;SDS011;4243;49.296;11.348;2023-02-11T07:19:01;109.27;;;2.90;;
8411;SDS011;4243;49.296;11.348;2023-02-11T07:21:29;110.50;;;2.97;;
8411;SDS011;4243;49.296;11.348;2023-02-11T07:23:56;110.63;;;2.97;;
8411;SDS011;4243;49.296;11.348;2023-02-11T07:26:23;110.30;;;2.90;;
8411;SDS011;4243;49.296;11.348;2023-02-11T07:28:51;111.07;;;3.00;;
8411;SDS011;4243;49.296;11.348;2023-02-11T07:31:20;111.27;;;3.00;;
8411;SDS011;4243;49.296;11.348;2023-02-11T07:33:52;110.80;;;3.00;;
8411;SDS011;4243;49.296;11.348;2023-02-11T07:36:25;111.07;;;2.93;;
8411;SDS011;4243;49.296;11.348;2023-02-11T07:38:55;110.83;;;2.93;;
8411;SDS011;4243;49.296;11.348;2023-02-11T07:41:23;110.97;;;2.93;;
8411;SDS011;4243;49.296;11.348;2023-02-11T07:43:51;111.07;;;2.97;;
8411;SDS011;4243;49.296;11.348;2023-02-11T07:46:19;111.20;;;3.00;;
8411;SDS011;4243;49.296;11.348;2023-02-11T07:48:50;110.97;;;3.00;;
8411;SDS011;4243;49.296;11.348;2023-02-11T07:53:55;111.23;;;3.00;;
8411;SDS011;4243;49.296;11.348;2023-02-11T07:56:25;109.97;;;2.97;;
8411;SDS011;4243;49.296;11.348;2023-02-11T07:58:54;111.27;;;3.00;;
8411;SDS011;4243;49.296;11.348;2023-02-11T08:01:28;111.03;;;2.97;;
8411;SDS011;4243;49.296;11.348;2023-02-11T08:03:57;110.60;;;2.90;;
8411;SDS011;4243;49.296;11.348;2023-02-11T08:06:28;111.23;;;2.90;;
8411;SDS011;4243;49.296;11.348;2023-02-11T08:09:09;111.67;;;2.90;;
8411;SDS011;4243;49.296;11.348;2023-02-11T08:11:42;111.60;;;2.90;;
8411;SDS011;4243;49.296;11.348;2023-02-11T08:14:10;112.17;;;2.90;;
8411;SDS011;4243;49.296;11.348;2023-02-11T08:16:38;111.50;;;2.80;;
8411;SDS011;4243;49.296;11.348;2023-02-11T08:19:13;111.93;;;2.90;;
8411;SDS011;4243;49.296;11.348;2023-02-11T08:21:42;112.50;;;3.00;;
8411;SDS011;4243;49.296;11.348;2023-02-11T08:24:09;112.03;;;2.83;;
8411;SDS011;4243;49.296;11.348;2023-02-11T08:26:37;112.50;;;2.80;;
8411;SDS011;4243;49.296;11.348;2023-02-11T08:29:06;112.70;;;2.90;;
8411;SDS011;4243;49.296;11.348;2023-02-11T08:31:40;113.40;;;2.80;;
8411;SDS011;4243;49.296;11.348;2023-02-11T08:34:12;113.67;;;2.87;;
8411;SDS011;4243;49.296;11.348;2023-02-11T08:36:43;114.33;;;2.90;;
8411;SDS011;4243;49.296;11.348;2023-02-11T08:39:14;112.77;;;2.90;;
8411;SDS011;4243;49.296;11.348;2023-02-11T08:41:47;113.77;;;2.90;;
8411;SDS011;4243;49.296;11.348;2023-02-11T08:44:18;113.17;;;2.83;;
8411;SDS011;4243;49.296;11.348;2023-02-11T08:46:46;114.67;;;2.90;;
8411;SDS011;4243;49.296;11.348;2023-02-11T08:49:15;114.60;;;2.90;;
8411;SDS011;4243;49.296;11.348;2023-02-11T08:51:43;114.97;;;2.87;;
8411;SDS011;4243;49.296;11.348;2023-02-11T08:54:11;115.17;;;2.87;;
8411;SDS011;4243;49.296;11.348;2023-02-11T08:56:40;114.83;;;2.87;;
8411;SDS011;4243;49.296;11.348;2023-02-11T08:59:09;115.20;;;3.00;;
8411;SDS011;4243;49.296;11.348;2023-02-11T09:03:59;115.47;;;2.90;;
8411;SDS011;4243;49.296;11.348;2023-02-11T09:06:28;114.80;;;2.90;;
8411;SDS011;4243;49.296;11.348;2023-02-11T09:08:56;112.60;;;2.90;;
8411;SDS011;4243;49.296;11.348;2023-02-11T09:11:28;115.40;;;2.93;;
8411;SDS011;4243;49.296;11.348;2023-02-11T09:14:00;115.20;;;2.90;;
8411;SDS011;4243;49.296;11.348;2023-02-11T09:16:29;114.67;;;2.87;;
8411;SDS011;4243;49.296;11.348;2023-02-11T09:19:01;113.97;;;2.90;;
8411;SDS011;4243;49.296;11.348;2023-02-11T09:21:30;114.93;;;2.87;;
8411;SDS011;4243;49.296;11.348;2023-02-11T09:23:58;114.80;;;2.87;;
8411;SDS011;4243;49.296;11.348;2023-02-11T09:26:26;115.70;;;2.80;;
8411;SDS011;4243;49.296;11.348;2023-02-11T09:28:59;115.23;;;2.80;;
8411;SDS011;4243;49.296;11.348;2023-02-11T09:31:28;115.57;;;2.83;;
8411;SDS011;4243;49.296;11.348;2023-02-11T09:34:00;115.47;;;2.90;;
8411;SDS011;4243;49.296;11.348;2023-02-11T09:36:32;112.90;;;2.90;;
8411;SDS011;4243;49.296;11.348;2023-02-11T09:39:04;112.77;;;2.90;;
8411;SDS011;4243;49.296;11.348;2023-02-11T09:45:16;114.77;;;2.80;;
8411;SDS011;4243;49.296;11.348;2023-02-11T09:50:28;115.70;;;2.80;;
8411;SDS011;4243;49.296;11.348;2023-02-11T09:55:52;116.03;;;2.70;;
8411;SDS011;4243;49.296;11.348;2023-02-11T09:58:32;115.80;;;2.70;;
8411;SDS011;4243;49.296;11.348;2023-02-11T10:01:06;112.43;;;2.70;;
8411;SDS011;4243;49.296;11.348;2023-02-11T10:04:13;114.23;;;2.70;;
8411;SDS011;4243;49.296;11.348;2023-02-11T10:07:39;113.80;;;2.77;;
8411;SDS011;4243;49.296;11.348;2023-02-11T10:10:42;115.93;;;2.90;;
8411;SDS011;4243;49.296;11.348;2023-02-11T10:13:41;115.87;;;2.80;;
8411;SDS011;4243;49.296;11.348;2023-02-11T10:16:49;115.50;;;2.80;;
8411;SDS011;4243;49.296;11.348;2023-02-11T10:23:09;112.97;;;2.80;;
8411;SDS011;4243;49.296;11.348;2023-02-11T10:25:51;116.07;;;2.70;;
8411;SDS011;4243;49.296;11.348;2023-02-11T10:28:43;115.83;;;2.67;;
8411;SDS011;4243;49.296;11.348;2023-02-11T10:31:14;116.20;;;2.70;;
8411;SDS011;4243;49.296;11.348;2023-02-11T10:34:04;116.27;;;2.60;;
8411;SDS011;4243;49.296;11.348;2023-02-11T10:36:38;115.90;;;2.70;;
8411;SDS011;4243;49.296;11.348;2023-02-11T10:39:21;116.60;;;2.63;;
8411;SDS011;4243;49.296;11.348;2023-02-11T10:44:39;116.40;;;2.60;;
8411;SDS011;4243;49.296;11.348;2023-02-11T10:47:26;117.07;;;2.53;;
8411;SDS011;4243;49.296;11.348;2023-02-11T10:50:20;117.10;;;2.50;;
8411;SDS011;4243;49.296;11.348;2023-02-11T10:53:10;116.63;;;2.63;;
8411;SDS011;4243;49.296;11.348;2023-02-11T10:55:53;117.07;;;2.50;;
8411;SDS011;4243;49.296;11.348;2023-02-11T10:58:23;117.10;;;2.53;;
8411;SDS011;4243;49.296;11.348;2023-02-11T11:06:55;116.93;;;3.03;;
8411;SDS011;4243;49.296;11.348;2023-02-11T11:10:00;117.70;;;2.83;;
8411;SDS011;4243;49.296;11.348;2023-02-11T11:13:27;115.83;;;2.53;;
8411;SDS011;4243;49.296;11.348;2023-02-11T11:18:41;116.73;;;2.60;;
8411;SDS011;4243;49.296;11.348;2023-02-11T11:21:20;117.43;;;2.60;;
8411;SDS011;4243;49.296;11.348;2023-02-11T11:24:01;117.27;;;2.70;;
8411;SDS011;4243;49.296;11.348;2023-02-11T11:26:42;116.13;;;2.70;;
8411;SDS011;4243;49.296;11.348;2023-02-11T11:29:22;116.60;;;2.77;;
8411;SDS011;4243;49.296;11.348;2023-02-11T11:32:04;117.10;;;2.70;;
8411;SDS011;4243;49.296;11.348;2023-02-11T11:34:52;116.87;;;2.63;;
8411;SDS011;4243;49.296;11.348;2023-02-11T11:37:27;116.70;;;2.70;;
8411;SDS011;4243;49.296;11.348;2023-02-11T11:40:43;116.20;;;2.63;;
8411;SDS011;4243;49.296;11.348;2023-02-11T11:45:58;116.30;;;2.70;;
8411;SDS011;4243;49.296;11.348;2023-02-11T11:48:30;117.47;;;2.70;;
8411;SDS011;4243;49.296;11.348;2023-02-11T11:51:10;115.70;;;2.60;;
8411;SDS011;4243;49.296;11.348;2023-02-11T11:56:35;116.67;;;2.70;;
8411;SDS011;4243;49.296;11.348;2023-02-11T11:59:37;116.50;;;2.63;;
8411;SDS011;4243;49.296;11.348;2023-02-11T12:02:10;116.00;;;2.70;;
8411;SDS011;4243;49.296;11.348;2023-02-11T12:07:58;116.30;;;2.60;;
8411;SDS011;4243;49.296;11.348;2023-02-11T12:11:25;116.20;;;2.70;;
8411;SDS011;4243;49.296;11.348;2023-02-11T12:14:33;115.90;;;2.63;;
8411;SDS011;4243;49.296;11.348;2023-02-11T12:24:16;116.90;;;2.70;;
8411;SDS011;4243;49.296;11.348;2023-02-11T12:33:49;115.80;;;2.70;;
8411;SDS011;4243;49.296;11.348;2023-02-11T12:36:54;116.57;;;2.77;;
8411;SDS011;4243;49.296;11.348;2023-02-11T12:40:18;116.47;;;2.70;;
8411;SDS011;4243;49.296;11.348;2023-02-11T12:43:03;115.80;;;2.60;;
8411;SDS011;4243;49.296;11.348;2023-02-11T12:55:24;115.37;;;2.70;;
8411;SDS011;4243;49.296;11.348;2023-02-11T12:58:02;116.20;;;2.70;;
8411;SDS011;4243;49.296;11.348;2023-02-11T13:00:39;116.77;;;2.70;;
8411;SDS011;4243;49.296;11.348;2023-02-11T13:06:16;116.37;;;2.70;;
8411;SDS011;4243;49.296;11.348;2023-02-11T13:08:57;115.20;;;2.70;;
8411;SDS011;4243;49.296;11.348;2023-02-11T13:11:37;116.10;;;2.70;;
8411;SDS011;4243;49.296;11.348;2023-02-11T13:14:24;116.67;;;2.70;;
8411;SDS011;4243;49.296;11.348;2023-02-11T13:16:54;117.17;;;2.70;;
8411;SDS011;4243;49.296;11.348;2023-02-11T13:19:25;115.47;;;2.63;;
8411;SDS011;4243;49.296;11.348;2023-02-11T13:22:18;115.60;;;2.60;;
8411;SDS011;4243;49.296;11.348;2023-02-11T13:25:02;116.83;;;2.60;;
8411;SDS011;4243;49.296;11.348;2023-02-11T13:27:56;115.07;;;2.60;;
8411;SDS011;4243;49.296;11.348;2023-02-11T13:31:08;115.60;;;2.70;;
8411;SDS011;4243;49.296;11.348;2023-02-11T13:33:38;116.77;;;2.70;;
8411;SDS011;4243;49.296;11.348;2023-02-11T13:36:12;116.77;;;2.67;;
8411;SDS011;4243;49.296;11.348;2023-02-11T13:39:18;116.47;;;2.60;;
8411;SDS011;4243;49.296;11.348;2023-02-11T13:41:46;116.37;;;2.63;;
8411;SDS011;4243;49.296;11.348;2023-02-11T13:44:19;116.50;;;2.60;;
8411;SDS011;4243;49.296;11.348;2023-02-11T13:49:36;116.57;;;2.60;;
8411;SDS011;4243;49.296;11.348;2023-02-11T13:54:58;117.27;;;2.70;;
8411;SDS011;4243;49.296;11.348;2023-02-11T14:03:20;116.97;;;2.60;;
8411;SDS011;4243;49.296;11.348;2023-02-11T14:06:15;115.73;;;2.70;;
8411;SDS011;4243;49.296;11.348;2023-02-11T14:09:33;116.00;;;2.70;;
8411;SDS011;4243;49.296;11.348;2023-02-11T14:15:16;115.63;;;2.77;;
8411;SDS011;4243;49.296;11.348;2023-02-11T14:17:47;116.27;;;2.70;;
8411;SDS011;4243;49.296;11.348;2023-02-11T14:20:34;113.07;;;2.67;;
8411;SDS011;4243;49.296;11.348;2023-02-11T14:23:17;113.27;;;2.63;;
8411;SDS011;4243;49.296;11.348;2023-02-11T14:25:54;116.37;;;2.70;;
8411;SDS011;4243;49.296;11.348;2023-02-11T14:29:04;114.97;;;2.60;;
8411;SDS011;4243;49.296;11.348;2023-02-11T14:32:00;116.10;;;2.70;;
8411;SDS011;4243;49.296;11.348;2023-02-11T14:43:52;113.10;;;2.60;;
8411;SDS011;4243;49.296;11.348;2023-02-11T14:46:31;116.37;;;2.67;;
8411;SDS011;4243;49.296;11.348;2023-02-11T14:49:00;116.57;;;2.60;;
8411;SDS011;4243;49.296;11.348;2023-02-11T14:51:32;116.47;;;2.60;;
8411;SDS011;4243;49.296;11.348;2023-02-11T14:54:15;115.20;;;2.60;;
8411;SDS011;4243;49.296;11.348;2023-02-11T14:59:51;116.10;;;2.67;;
8411;SDS011;4243;49.296;11.348;2023-02-11T15:02:29;116.00;;;2.70;;
8411;SDS011;4243;49.296;11.348;2023-02-11T15:05:22;116.07;;;2.63;;
8411;SDS011;4243;49.296;11.348;2023-02-11T15:07:55;115.70;;;2.63;;
8411;SDS011;4243;49.296;11.348;2023-02-11T15:10:30;115.87;;;2.60;;
8411;SDS011;4243;49.296;11.348;2023-02-11T15:13:02;114.60;;;2.60;;
8411;SDS011;4243;49.296;11.348;2023-02-11T15:15:30;115.50;;;2.60;;
8411;SDS011;4243;49.296;11.348;2023-02-11T15:18:01;112.57;;;2.70;;
8411;SDS011;4243;49.296;11.348;2023-02-11T15:20:30;115.40;;;2.70;;
8411;SDS011;4243;49.296;11.348;2023-02-11T15:23:00;115.87;;;2.77;;
8411;SDS011;4243;49.296;11.348;2023-02-11T15:25:41;115.20;;;2.70;;
8411;SDS011;4243;49.296;11.348;2023-02-11T15:31:05;114.00;;;2.70;;
8411;SDS011;4243;49.296;11.348;2023-02-11T15:33:42;115.50;;;2.70;;
8411;SDS011;4243;49.296;11.348;2023-02-11T15:36:10;115.47;;;2.70;;
8411;SDS011;4243;49.296;11.348;2023-02-11T15:38:40;115.50;;;2.77;;
8411;SDS011;4243;49.296;11.348;2023-02-11T15:41:26;115.33;;;2.70;;
8411;SDS011;4243;49.296;11.348;2023-02-11T15:44:03;115.20;;;2.70;;
8411;SDS011;4243;49.296;11.348;2023-02-11T15:46:37;115.33;;;2.77;;
8411;SDS011;4243;49.296;11.348;2023-02-11T15:49:05;116.07;;;2.90;;
8411;SDS011;4243;49.296;11.348;2023-02-11T15:51:44;115.27;;;2.70;;
8411;SDS011;4243;49.296;11.348;2023-02-11T15:54:19;115.67;;;2.70;;
8411;SDS011;4243;49.296;11.348;2023-02-11T15:56:52;115.53;;;2.73;;
8411;SDS011;4243;49.296;11.348;2023-02-11T15:59:32;115.40;;;2.80;;
8411;SDS011;4243;49.296;11.348;2023-02-11T16:02:16;113.60;;;2.80;;
8411;SDS011;4243;49.296;11.348;2023-02-11T16:05:07;112.87;;;2.70;;
8411;SDS011;4243;49.296;11.348;2023-02-11T16:07:47;115.40;;;2.73;;
8411;SDS011;4243;49.296;11.348;2023-02-11T16:13:42;113.00;;;2.77;;
8411;SDS011;4243;49.296;11.348;2023-02-11T16:15:47;116.07;;;2.80;;
8411;SDS011;4243;49.296;11.348;2023-02-11T16:18:33;115.63;;;2.73;;
8411;SDS011;4243;49.296;11.348;2023-02-11T16:21:26;115.77;;;2.80;;
8411;SDS011;4243;49.296;11.348;2023-02-11T16:24:04;115.70;;;2.80;;
8411;SDS011;4243;49.296;11.348;2023-02-11T16:26:35;115.60;;;2.77;;
8411;SDS011;4243;49.296;11.348;2023-02-11T16:29:12;113.37;;;2.73;;
8411;SDS011;4243;49.296;11.348;2023-02-11T16:31:50;113.10;;;2.80;;
8411;SDS011;4243;49.296;11.348;2023-02-11T16:34:30;114.70;;;2.80;;
8411;SDS011;4243;49.296;11.348;2023-02-11T16:36:57;116.10;;;2.80;;
8411;SDS011;4243;49.296;11.348;2023-02-11T16:39:24;115.70;;;2.80;;
8411;SDS011;4243;49.296;11.348;2023-02-11T16:41:51;115.20;;;2.80;;
8411;SDS011;4243;49.296;11.348;2023-02-11T16:44:19;112.20;;;2.73;;
8411;SDS011;4243;49.296;11.348;2023-02-11T16:46:47;115.07;;;2.73;;
8411;SDS011;4243;49.296;11.348;2023-02-11T16:49:16;112.27;;;2.80;;
8411;SDS011;4243;49.296;11.348;2023-02-11T16:52:11;115.33;;;2.77;;
8411;SDS011;4243;49.296;11.348;2023-02-11T16:54:41;115.30;;;2.77;;
8411;SDS011;4243;49.296;11.348;2023-02-11T16:59:50;115.40;;;2.70;;
8411;SDS011;4243;49.296;11.348;2023-02-11T17:02:21;115.20;;;2.80;;
8411;SDS011;4243;49.296;11.348;2023-02-11T17:05:02;114.23;;;2.73;;
8411;SDS011;4243;49.296;11.348;2023-02-11T17:07:34;116.27;;;2.90;;
8411;SDS011;4243;49.296;11.348;2023-02-11T17:10:01;115.40;;;2.80;;
8411;SDS011;4243;49.296;11.348;2023-02-11T17:12:29;115.33;;;2.80;;
8411;SDS011;4243;49.296;11.348;2023-02-11T17:14:57;115.97;;;2.73;;
8411;SDS011;4243;49.296;11.348;2023-02-11T17:17:25;114.90;;;2.77;;
8411;SDS011;4243;49.296;11.348;2023-02-11T17:19:54;115.40;;;2.80;;
8411;SDS011;4243;49.296;11.348;2023-02-11T17:22:21;115.50;;;2.70;;
8411;SDS011;4243;49.296;11.348;2023-02-11T17:24:49;115.33;;;2.80;;
8411;SDS011;4243;49.296;11.348;2023-02-11T17:27:17;115.80;;;2.80;;